createdAt,value
2023-01-17T00:00:03.349Z,95.89
2023-01-17T00:01:03.284Z,95.78
2023-01-17T00:02:03.289Z,95.99
2023-01-17T00:03:03.337Z,95.99
2023-01-17T00:04:03.360Z,96.09
2023-01-17T00:05:03.259Z,95.89
2023-01-17T00:06:03.244Z,95.99
2023-01-17T00:07:03.217Z,95.78
2023-01-17T00:08:03.213Z,95.68
2023-01-17T00:09:03.209Z,95.68
2023-01-17T00:10:03.219Z,95.57
2023-01-17T00:11:03.178Z,95.99
2023-01-17T00:12:03.179Z,95.53
2023-01-17T00:13:03.156Z,95.22
2023-01-17T00:14:03.147Z,95.53
2023-01-17T00:15:03.148Z,95.89
2023-01-17T00:16:03.221Z,95.74
2023-01-17T00:17:03.147Z,95.57
2023-01-17T00:18:03.097Z,95.99
2023-01-17T00:19:03.115Z,95.74
2023-01-17T00:20:03.125Z,95.74
2023-01-17T00:21:03.062Z,95.68
2023-01-17T00:22:03.055Z,95.53
2023-01-17T00:23:03.046Z,95.57
2023-01-17T00:24:03.037Z,95.26
2023-01-17T00:25:03.033Z,95.37
2023-01-17T00:26:03.080Z,95.78
2023-01-17T00:27:03.011Z,95.68
2023-01-17T00:28:02.984Z,95.47
2023-01-17T00:29:02.984Z,96.09
2023-01-17T00:30:02.995Z,95.89
2023-01-17T00:31:03.002Z,95.99
2023-01-17T00:32:02.943Z,95.53
2023-01-17T00:33:02.939Z,95.37
2023-01-17T00:34:02.923Z,95.32
2023-01-17T00:35:02.918Z,95.57
2023-01-17T00:36:03.032Z,95.01
2023-01-17T00:37:02.890Z,94.39
2023-01-17T00:38:02.904Z,94.08
2023-01-17T00:39:02.858Z,93.87
2023-01-17T00:40:02.867Z,93.56
2023-01-17T00:41:02.858Z,92.94
2023-01-17T00:42:02.831Z,93.46
2023-01-17T00:43:02.826Z,92.53
2023-01-17T00:44:02.851Z,92.11
2023-01-17T00:45:02.795Z,92.22
2023-01-17T00:46:02.801Z,92.43
2023-01-17T00:47:02.815Z,91.49
2023-01-17T00:48:02.774Z,91.91
2023-01-17T00:49:02.792Z,91.18
2023-01-17T00:50:02.751Z,91.18
2023-01-17T00:51:02.729Z,92.22
2023-01-17T00:52:02.742Z,91.49
2023-01-17T00:53:02.740Z,92.26
2023-01-17T00:54:02.718Z,91.33
2023-01-17T00:55:02.687Z,91.08
2023-01-17T00:56:02.681Z,91.33
2023-01-17T00:57:02.662Z,91.53
2023-01-17T00:58:02.652Z,91.12
2023-01-17T00:59:02.663Z,92.05
2023-01-17T01:00:02.666Z,91.85
2023-01-17T01:01:02.758Z,92.57
2023-01-17T01:02:02.736Z,92.36
2023-01-17T01:03:02.597Z,92.36
2023-01-17T01:04:02.586Z,92.36
2023-01-17T01:05:02.615Z,91.95
2023-01-17T01:06:02.591Z,92.68
2023-01-17T01:07:02.560Z,92.57
2023-01-17T01:08:02.562Z,92.47
2023-01-17T01:09:02.560Z,93.08
2023-01-17T01:10:02.540Z,92.47
2023-01-17T01:11:02.529Z,92.82
2023-01-17T01:12:02.500Z,92.82
2023-01-17T01:13:02.489Z,92.41
2023-01-17T01:14:02.552Z,92.61
2023-01-17T01:15:02.481Z,92.41
2023-01-17T01:16:02.490Z,92.72
2023-01-17T01:17:02.462Z,92.93
2023-01-17T01:18:02.430Z,91.89
2023-01-17T01:19:02.420Z,92.72
2023-01-17T01:20:02.441Z,92.41
2023-01-17T01:21:02.410Z,92.51
2023-01-17T01:22:02.388Z,92.10
2023-01-17T01:23:02.385Z,91.95
2023-01-17T01:24:02.391Z,91.58
2023-01-17T01:25:02.372Z,91.89
2023-01-17T01:26:02.349Z,91.99
2023-01-17T01:27:02.334Z,92.68
2023-01-17T01:28:02.360Z,91.99
2023-01-17T01:29:02.307Z,92.41
2023-01-17T01:30:02.304Z,92.20
2023-01-17T01:31:02.302Z,92.61
2023-01-17T01:32:02.309Z,93.23
2023-01-17T01:33:02.275Z,93.54
2023-01-17T01:34:02.264Z,93.02
2023-01-17T01:35:02.248Z,93.65
2023-01-17T01:36:02.256Z,93.38
2023-01-17T01:37:02.226Z,93.38
2023-01-17T01:38:02.218Z,93.75
2023-01-17T01:39:02.199Z,93.59
2023-01-17T01:40:02.226Z,94.01
2023-01-17T01:41:02.201Z,93.70
2023-01-17T01:42:02.175Z,93.70
2023-01-17T01:43:02.178Z,93.70
2023-01-17T01:44:02.144Z,93.28
2023-01-17T01:45:02.135Z,93.28
2023-01-17T01:46:02.185Z,92.97
2023-01-17T01:47:02.113Z,92.66
2023-01-17T01:48:02.101Z,93.59
2023-01-17T01:49:02.097Z,93.07
2023-01-17T01:50:02.104Z,93.28
2023-01-17T01:51:02.255Z,93.28
2023-01-17T01:52:02.065Z,93.59
2023-01-17T01:53:02.081Z,92.86
2023-01-17T01:54:02.056Z,92.61
2023-01-17T01:55:02.051Z,92.66
2023-01-17T01:56:02.078Z,92.86
2023-01-17T01:57:02.025Z,92.72
2023-01-17T01:58:02.037Z,92.35
2023-01-17T01:59:01.991Z,92.72
2023-01-17T02:00:01.966Z,91.99
2023-01-17T02:01:02.122Z,92.20
2023-01-17T02:02:01.950Z,91.93
2023-01-17T02:03:01.959Z,92.35
2023-01-17T02:04:01.955Z,92.72
2023-01-17T02:05:04.518Z,93.13
2023-01-17T02:06:01.900Z,92.86
2023-01-17T02:07:01.916Z,92.55
2023-01-17T02:08:01.885Z,92.97
2023-01-17T02:09:01.873Z,92.93
2023-01-17T02:10:01.862Z,92.93
2023-01-17T02:11:01.849Z,92.61
2023-01-17T02:12:01.888Z,92.51
2023-01-17T02:13:01.847Z,93.02
2023-01-17T02:14:01.846Z,93.23
2023-01-17T02:15:01.817Z,92.82
2023-01-17T02:16:01.880Z,92.41
2023-01-17T02:17:01.797Z,92.20
2023-01-17T02:18:01.783Z,92.72
2023-01-17T02:19:01.759Z,92.10
2023-01-17T02:20:01.776Z,92.41
2023-01-17T02:21:01.746Z,92.30
2023-01-17T02:22:01.758Z,92.82
2023-01-17T02:23:01.714Z,92.93
2023-01-17T02:24:01.720Z,93.02
2023-01-17T02:25:01.694Z,92.82
2023-01-17T02:26:01.720Z,93.02
2023-01-17T02:27:01.675Z,93.59
2023-01-17T02:28:01.777Z,92.93
2023-01-17T02:29:01.645Z,93.38
2023-01-17T02:30:01.637Z,93.23
2023-01-17T02:31:01.659Z,93.13
2023-01-17T02:32:01.630Z,93.23
2023-01-17T02:33:01.656Z,93.02
2023-01-17T02:34:01.595Z,93.07
2023-01-17T02:35:01.589Z,92.20
2023-01-17T02:36:01.571Z,92.35
2023-01-17T02:37:01.608Z,92.20
2023-01-17T02:38:01.561Z,91.99
2023-01-17T02:39:01.577Z,92.41
2023-01-17T02:40:02.373Z,93.02
2023-01-17T02:41:01.529Z,93.23
2023-01-17T02:42:01.557Z,93.70
2023-01-17T02:43:01.526Z,93.70
2023-01-17T02:44:01.555Z,92.97
2023-01-17T02:45:01.473Z,93.70
2023-01-17T02:46:01.621Z,93.80
2023-01-17T02:47:01.456Z,93.90
2023-01-17T02:48:01.487Z,94.11
2023-01-17T02:49:01.433Z,93.80
2023-01-17T02:50:01.417Z,94.05
2023-01-17T02:51:01.444Z,94.42
2023-01-17T02:52:01.394Z,94.73
2023-01-17T02:53:01.406Z,94.84
2023-01-17T02:54:01.385Z,94.53
2023-01-17T02:55:01.369Z,94.73
2023-01-17T02:56:01.364Z,94.94
2023-01-17T02:57:01.338Z,94.94
2023-01-17T02:58:01.346Z,94.84
2023-01-17T02:59:01.315Z,94.73
2023-01-17T03:00:01.351Z,94.67
2023-01-17T03:01:01.414Z,94.67
2023-01-17T03:02:01.538Z,94.98
2023-01-17T03:03:01.348Z,94.88
2023-01-17T03:04:01.283Z,94.98
2023-01-17T03:05:01.253Z,94.88
2023-01-17T03:06:01.245Z,94.88
2023-01-17T03:07:01.236Z,94.88
2023-01-17T03:08:01.234Z,94.88
2023-01-17T03:09:01.233Z,94.88
2023-01-17T03:10:01.205Z,94.98
2023-01-17T03:11:01.192Z,95.09
2023-01-17T03:12:01.189Z,94.67
2023-01-17T03:13:01.274Z,95.19
2023-01-17T03:14:01.159Z,95.09
2023-01-17T03:15:01.177Z,95.29
2023-01-17T03:16:01.171Z,94.73
2023-01-17T03:17:01.132Z,94.73
2023-01-17T03:18:01.130Z,94.11
2023-01-17T03:19:01.281Z,94.01
2023-01-17T03:20:01.100Z,93.90
2023-01-17T03:21:01.075Z,94.42
2023-01-17T03:22:01.070Z,94.11
2023-01-17T03:23:01.096Z,93.90
2023-01-17T03:24:01.070Z,94.42
2023-01-17T03:25:01.038Z,93.80
2023-01-17T03:26:01.023Z,93.90
2023-01-17T03:27:01.019Z,94.01
2023-01-17T03:28:01.027Z,93.80
2023-01-17T03:29:01.001Z,94.32
2023-01-17T03:30:00.978Z,94.11
2023-01-17T03:31:01.028Z,94.32
2023-01-17T03:32:00.988Z,94.36
2023-01-17T03:33:00.954Z,94.32
2023-01-17T03:34:00.963Z,94.21
2023-01-17T03:35:00.927Z,94.01
2023-01-17T03:36:00.938Z,94.53
2023-01-17T03:37:00.906Z,94.01
2023-01-17T03:38:00.921Z,93.28
2023-01-17T03:39:00.900Z,93.80
2023-01-17T03:40:00.948Z,93.49
2023-01-17T03:41:00.892Z,93.28
2023-01-17T03:42:00.846Z,93.38
2023-01-17T03:43:00.860Z,92.76
2023-01-17T03:44:00.876Z,92.86
2023-01-17T03:45:00.808Z,91.99
2023-01-17T03:46:00.851Z,92.30
2023-01-17T03:47:00.786Z,92.24
2023-01-17T03:48:00.824Z,92.20
2023-01-17T03:49:00.786Z,92.20
2023-01-17T03:50:00.786Z,92.24
2023-01-17T03:51:00.776Z,91.99
2023-01-17T03:52:00.734Z,92.30
2023-01-17T03:53:00.723Z,92.72
2023-01-17T03:54:00.722Z,91.68
2023-01-17T03:55:00.726Z,92.30
2023-01-17T03:56:00.700Z,91.06
2023-01-17T03:57:00.690Z,91.27
2023-01-17T03:58:00.675Z,91.06
2023-01-17T03:59:00.682Z,91.06
2023-01-17T04:00:00.678Z,91.58
2023-01-17T04:01:00.799Z,91.16
2023-01-17T04:02:00.711Z,91.37
2023-01-17T04:03:00.621Z,91.27
2023-01-17T04:04:00.649Z,91.06
2023-01-17T04:05:00.653Z,90.85
2023-01-17T04:06:00.611Z,89.92
2023-01-17T04:07:00.822Z,90.54
2023-01-17T04:08:00.556Z,90.23
2023-01-17T04:09:00.579Z,90.02
2023-01-17T04:10:00.545Z,90.02
2023-01-17T04:11:00.555Z,90.02
2023-01-17T04:12:00.524Z,89.67
2023-01-17T04:13:00.520Z,89.56
2023-01-17T04:14:00.505Z,89.61
2023-01-17T04:15:00.520Z,89.50
2023-01-17T04:16:00.467Z,89.81
2023-01-17T04:17:00.455Z,90.54
2023-01-17T04:18:00.467Z,90.85
2023-01-17T04:19:00.453Z,90.64
2023-01-17T04:20:00.499Z,90.64
2023-01-17T04:21:00.458Z,90.33
2023-01-17T04:22:00.420Z,90.54
2023-01-17T04:23:00.405Z,90.58
2023-01-17T04:24:00.400Z,91.10
2023-01-17T04:25:00.397Z,91.00
2023-01-17T04:26:00.383Z,90.89
2023-01-17T04:27:00.367Z,90.89
2023-01-17T04:28:00.340Z,91.10
2023-01-17T04:29:00.330Z,91.16
2023-01-17T04:30:00.330Z,90.69
2023-01-17T04:31:00.424Z,90.37
2023-01-17T04:32:00.293Z,90.58
2023-01-17T04:33:00.339Z,90.58
2023-01-17T04:34:00.275Z,91.20
2023-01-17T04:35:00.290Z,90.69
2023-01-17T04:36:00.295Z,90.37
2023-01-17T04:37:00.261Z,90.58
2023-01-17T04:38:00.254Z,90.79
2023-01-17T04:39:00.283Z,90.89
2023-01-17T04:40:00.224Z,91.20
2023-01-17T04:41:00.189Z,91.62
2023-01-17T04:42:00.195Z,91.31
2023-01-17T04:43:00.182Z,91.35
2023-01-17T04:44:00.197Z,91.97
2023-01-17T04:45:00.175Z,91.35
2023-01-17T04:46:00.202Z,91.35
2023-01-17T04:47:00.136Z,92.49
2023-01-17T04:48:00.131Z,92.59
2023-01-17T04:49:00.125Z,92.28
2023-01-17T04:50:00.158Z,92.28
2023-01-17T04:51:00.110Z,93.01
2023-01-17T04:52:00.114Z,92.80
2023-01-17T04:53:00.182Z,92.69
2023-01-17T04:54:00.066Z,93.63
2023-01-17T04:55:00.084Z,93.22
2023-01-17T04:56:00.071Z,93.47
2023-01-17T04:57:00.052Z,93.26
2023-01-17T04:58:00.018Z,93.05
2023-01-17T04:59:00.004Z,93.26
2023-01-17T04:59:59.994Z,93.99
2023-01-17T05:01:00.038Z,93.88
2023-01-17T05:02:00.069Z,93.47
2023-01-17T05:03:00.010Z,93.30
2023-01-17T05:03:59.940Z,93.72
2023-01-17T05:04:59.950Z,93.62
2023-01-17T05:05:59.928Z,93.68
2023-01-17T05:06:59.930Z,94.03
2023-01-17T05:07:59.919Z,94.24
2023-01-17T05:08:59.916Z,93.99
2023-01-17T05:09:59.883Z,94.09
2023-01-17T05:10:59.860Z,94.45
2023-01-17T05:11:59.873Z,94.45
2023-01-17T05:12:59.840Z,94.13
2023-01-17T05:13:59.871Z,93.93
2023-01-17T05:14:59.844Z,94.13
2023-01-17T05:15:59.891Z,94.34
2023-01-17T05:16:59.800Z,94.34
2023-01-17T05:17:59.848Z,94.86
2023-01-17T05:18:59.792Z,94.86
2023-01-17T05:19:59.765Z,94.86
2023-01-17T05:20:59.788Z,94.86
2023-01-17T05:21:59.766Z,94.96
2023-01-17T05:22:59.788Z,94.96
2023-01-17T05:23:59.740Z,95.07
2023-01-17T05:24:59.742Z,95.90
2023-01-17T05:25:59.701Z,95.53
2023-01-17T05:26:59.690Z,95.79
2023-01-17T05:27:59.679Z,96.25
2023-01-17T05:28:59.681Z,95.94
2023-01-17T05:29:59.663Z,95.63
2023-01-17T05:30:59.748Z,95.73
2023-01-17T05:31:59.644Z,95.78
2023-01-17T05:32:59.683Z,95.84
2023-01-17T05:33:59.640Z,95.89
2023-01-17T05:34:59.609Z,95.67
2023-01-17T05:35:59.599Z,96.36
2023-01-17T05:36:59.580Z,96.61
2023-01-17T05:37:59.575Z,96.09
2023-01-17T05:38:59.585Z,96.51
2023-01-17T05:39:59.594Z,96.41
2023-01-17T05:40:59.552Z,96.30
2023-01-17T05:41:59.552Z,95.99
2023-01-17T05:42:59.508Z,96.41
2023-01-17T05:43:59.555Z,96.76
2023-01-17T05:44:59.498Z,97.17
2023-01-17T05:45:59.506Z,97.28
2023-01-17T05:46:59.477Z,96.86
2023-01-17T05:47:59.463Z,97.49
2023-01-17T05:48:59.567Z,96.97
2023-01-17T05:49:59.438Z,96.97
2023-01-17T05:50:59.438Z,96.97
2023-01-17T05:51:59.417Z,96.97
2023-01-17T05:52:59.398Z,97.03
2023-01-17T05:53:59.421Z,96.86
2023-01-17T05:54:59.379Z,96.72
2023-01-17T05:55:59.394Z,97.17
2023-01-17T05:56:59.358Z,97.07
2023-01-17T05:57:59.361Z,97.49
2023-01-17T05:58:59.362Z,96.76
2023-01-17T05:59:59.321Z,95.89
2023-01-17T06:00:59.352Z,95.72
2023-01-17T06:01:59.309Z,96.03
2023-01-17T06:02:59.407Z,95.93
2023-01-17T06:03:59.303Z,94.68
2023-01-17T06:05:00.871Z,94.99
2023-01-17T06:05:59.260Z,95.15
2023-01-17T06:06:59.243Z,94.74
2023-01-17T06:07:59.239Z,94.53
2023-01-17T06:08:59.259Z,94.32
2023-01-17T06:09:59.225Z,93.80
2023-01-17T06:10:59.240Z,94.01
2023-01-17T06:11:59.244Z,94.32
2023-01-17T06:12:59.196Z,94.32
2023-01-17T06:13:59.168Z,94.64
2023-01-17T06:14:59.164Z,94.12
2023-01-17T06:15:59.243Z,94.01
2023-01-17T06:16:59.135Z,94.12
2023-01-17T06:17:59.124Z,93.60
2023-01-17T06:19:00.096Z,94.12
2023-01-17T06:19:59.136Z,94.01
2023-01-17T06:20:59.121Z,93.91
2023-01-17T06:21:59.086Z,93.91
2023-01-17T06:22:59.105Z,93.91
2023-01-17T06:23:59.061Z,93.60
2023-01-17T06:24:59.070Z,93.80
2023-01-17T06:25:59.055Z,93.91
2023-01-17T06:26:59.029Z,94.74
2023-01-17T06:27:59.077Z,94.12
2023-01-17T06:28:59.017Z,94.43
2023-01-17T06:29:59.100Z,93.70
2023-01-17T06:30:59.002Z,93.85
2023-01-17T06:32:01.540Z,94.06
2023-01-17T06:32:59.008Z,94.74
2023-01-17T06:33:58.951Z,94.47
2023-01-17T06:34:58.969Z,94.43
2023-01-17T06:35:58.967Z,94.89
2023-01-17T06:36:58.925Z,94.99
2023-01-17T06:37:58.933Z,95.51
2023-01-17T06:38:58.911Z,95.20
2023-01-17T06:39:58.902Z,95.30
2023-01-17T06:40:58.890Z,95.93
2023-01-17T06:41:58.874Z,95.76
2023-01-17T06:42:58.851Z,95.76
2023-01-17T06:43:58.866Z,96.39
2023-01-17T06:44:58.855Z,96.08
2023-01-17T06:45:58.827Z,95.66
2023-01-17T06:46:58.817Z,95.76
2023-01-17T06:47:58.820Z,95.76
2023-01-17T06:48:58.795Z,95.91
2023-01-17T06:49:58.779Z,96.43
2023-01-17T06:50:58.767Z,96.85
2023-01-17T06:51:58.795Z,97.16
2023-01-17T06:52:58.751Z,97.06
2023-01-17T06:53:58.734Z,97.06
2023-01-17T06:54:58.753Z,97.37
2023-01-17T06:55:58.730Z,97.62
2023-01-17T06:56:58.724Z,97.31
2023-01-17T06:57:58.712Z,97.37
2023-01-17T06:58:58.673Z,97.37
2023-01-17T06:59:58.712Z,97.37
2023-01-17T07:00:58.737Z,97.41
2023-01-17T07:01:58.653Z,97.52
2023-01-17T07:02:58.664Z,97.37
2023-01-17T07:03:58.709Z,97.52
2023-01-17T07:04:58.636Z,97.62
2023-01-17T07:05:58.596Z,97.83
2023-01-17T07:06:58.597Z,97.78
2023-01-17T07:07:58.618Z,97.78
2023-01-17T07:08:58.575Z,97.47
2023-01-17T07:09:58.568Z,97.37
2023-01-17T07:10:58.552Z,97.52
2023-01-17T07:11:58.534Z,97.68
2023-01-17T07:12:58.555Z,97.37
2023-01-17T07:13:58.558Z,97.78
2023-01-17T07:14:58.504Z,97.47
2023-01-17T07:15:58.626Z,97.58
2023-01-17T07:16:58.492Z,97.47
2023-01-17T07:17:58.470Z,97.16
2023-01-17T07:18:58.465Z,97.16
2023-01-17T07:19:58.450Z,97.16
2023-01-17T07:20:58.460Z,97.37
2023-01-17T07:21:58.452Z,97.37
2023-01-17T07:22:58.441Z,96.95
2023-01-17T07:23:58.502Z,97.37
2023-01-17T07:24:58.576Z,97.47
2023-01-17T07:25:58.399Z,97.16
2023-01-17T07:26:58.379Z,97.27
2023-01-17T07:27:58.374Z,97.16
2023-01-17T07:28:58.350Z,97.58
2023-01-17T07:29:58.363Z,97.27
2023-01-17T07:30:59.142Z,97.47
2023-01-17T07:31:58.340Z,96.79
2023-01-17T07:32:58.306Z,97.78
2023-01-17T07:33:58.351Z,97.78
2023-01-17T07:34:58.289Z,97.47
2023-01-17T07:35:58.303Z,97.78
2023-01-17T07:36:58.285Z,97.89
2023-01-17T07:37:58.250Z,97.52
2023-01-17T07:38:58.312Z,97.78
2023-01-17T07:39:58.231Z,97.78
2023-01-17T07:40:58.230Z,97.47
2023-01-17T07:41:58.214Z,97.47
2023-01-17T07:42:58.199Z,97.68
2023-01-17T07:43:58.191Z,97.78
2023-01-17T07:44:58.204Z,97.47
2023-01-17T07:45:58.187Z,97.58
2023-01-17T07:46:58.163Z,96.85
2023-01-17T07:47:58.188Z,97.22
2023-01-17T07:48:58.134Z,97.37
2023-01-17T07:49:58.110Z,97.16
2023-01-17T07:50:58.148Z,97.37
2023-01-17T07:51:58.098Z,97.27
2023-01-17T07:52:58.084Z,97.47
2023-01-17T07:53:58.077Z,97.47
2023-01-17T07:54:58.061Z,97.47
2023-01-17T07:55:58.070Z,97.64
2023-01-17T07:56:58.032Z,97.47
2023-01-17T07:57:58.052Z,97.58
2023-01-17T07:58:58.018Z,97.33
2023-01-17T07:59:58.009Z,97.37
2023-01-17T08:00:58.071Z,97.27
2023-01-17T08:01:58.097Z,97.78
2023-01-17T08:02:57.978Z,97.47
2023-01-17T08:03:58.025Z,97.47
2023-01-17T08:04:57.970Z,96.95
2023-01-17T08:05:57.942Z,97.16
2023-01-17T08:06:57.935Z,96.95
2023-01-17T08:07:57.923Z,97.16
2023-01-17T08:08:57.931Z,97.37
2023-01-17T08:09:57.920Z,97.27
2023-01-17T08:10:57.881Z,96.33
2023-01-17T08:11:57.872Z,96.64
2023-01-17T08:12:57.863Z,96.43
2023-01-17T08:13:57.879Z,96.12
2023-01-17T08:14:57.843Z,96.64
2023-01-17T08:15:57.827Z,96.12
2023-01-17T08:16:57.835Z,96.01
2023-01-17T08:17:57.811Z,95.91
2023-01-17T08:18:57.819Z,96.12
2023-01-17T08:19:57.823Z,96.12
2023-01-17T08:20:57.803Z,96.12
2023-01-17T08:21:57.769Z,95.81
2023-01-17T08:22:57.762Z,96.08
2023-01-17T08:23:57.746Z,96.18
2023-01-17T08:24:57.731Z,96.18
2023-01-17T08:25:57.743Z,96.18
2023-01-17T08:26:57.715Z,95.87
2023-01-17T08:27:57.719Z,95.87
2023-01-17T08:28:57.698Z,96.08
2023-01-17T08:29:57.676Z,96.08
2023-01-17T08:30:57.694Z,95.56
2023-01-17T08:31:57.662Z,95.76
2023-01-17T08:32:57.643Z,95.97
2023-01-17T08:33:57.703Z,95.97
2023-01-17T08:34:57.628Z,95.45
2023-01-17T08:35:57.634Z,95.03
2023-01-17T08:36:57.627Z,95.14
2023-01-17T08:37:57.680Z,94.82
2023-01-17T08:38:57.596Z,95.03
2023-01-17T08:39:57.610Z,95.03
2023-01-17T08:40:57.553Z,95.20
2023-01-17T08:41:57.682Z,95.09
2023-01-17T08:42:57.559Z,94.89
2023-01-17T08:43:57.545Z,95.14
2023-01-17T08:44:57.517Z,95.03
2023-01-17T08:45:57.563Z,95.03
2023-01-17T08:46:57.491Z,95.14
2023-01-17T08:47:57.474Z,94.99
2023-01-17T08:48:57.500Z,94.93
2023-01-17T08:49:57.454Z,95.20
2023-01-17T08:50:57.482Z,95.45
2023-01-17T08:51:57.457Z,95.14
2023-01-17T08:52:58.680Z,95.03
2023-01-17T08:53:57.436Z,95.25
2023-01-17T08:54:57.400Z,95.25
2023-01-17T08:55:57.406Z,95.20
2023-01-17T08:56:57.394Z,95.30
2023-01-17T08:57:57.369Z,95.20
2023-01-17T08:58:57.356Z,95.25
2023-01-17T08:59:57.354Z,95.09
2023-01-17T09:00:57.420Z,94.93
2023-01-17T09:01:57.435Z,94.78
2023-01-17T09:02:57.352Z,94.57
2023-01-17T09:03:57.322Z,94.47
2023-01-17T09:04:57.290Z,94.26
2023-01-17T09:05:57.300Z,94.22
2023-01-17T09:06:57.268Z,94.37
2023-01-17T09:07:57.302Z,94.43
2023-01-17T09:08:57.249Z,94.01
2023-01-17T09:09:57.253Z,94.22
2023-01-17T09:10:57.226Z,94.64
2023-01-17T09:11:57.211Z,94.32
2023-01-17T09:12:57.227Z,94.22
2023-01-17T09:13:57.195Z,93.70
2023-01-17T09:14:57.181Z,93.45
2023-01-17T09:15:57.188Z,93.66
2023-01-17T09:16:57.192Z,93.97
2023-01-17T09:17:57.152Z,93.93
2023-01-17T09:18:57.149Z,94.28
2023-01-17T09:19:57.133Z,94.34
2023-01-17T09:20:57.153Z,93.72
2023-01-17T09:21:57.097Z,94.13
2023-01-17T09:22:57.095Z,93.87
2023-01-17T09:23:57.109Z,93.41
2023-01-17T09:24:57.078Z,93.72
2023-01-17T09:25:57.061Z,93.03
2023-01-17T09:26:57.065Z,93.20
2023-01-17T09:27:57.036Z,92.99
2023-01-17T09:28:57.036Z,92.47
2023-01-17T09:29:57.013Z,92.26
2023-01-17T09:30:57.076Z,92.53
2023-01-17T09:31:56.994Z,91.80
2023-01-17T09:32:56.986Z,92.43
2023-01-17T09:33:56.994Z,91.91
2023-01-17T09:34:56.964Z,92.11
2023-01-17T09:35:56.971Z,91.60
2023-01-17T09:36:56.940Z,91.08
2023-01-17T09:37:57.326Z,91.02
2023-01-17T09:38:56.914Z,91.39
2023-01-17T09:39:56.935Z,90.60
2023-01-17T09:40:56.920Z,90.70
2023-01-17T09:41:56.904Z,89.56
2023-01-17T09:42:56.893Z,90.29
2023-01-17T09:43:56.887Z,89.87
2023-01-17T09:44:56.854Z,90.70
2023-01-17T09:45:57.052Z,90.70
2023-01-17T09:46:56.879Z,91.02
2023-01-17T09:47:56.855Z,91.53
2023-01-17T09:48:56.812Z,91.22
2023-01-17T09:49:56.794Z,91.22
2023-01-17T09:50:56.808Z,91.85
2023-01-17T09:51:56.767Z,91.43
2023-01-17T09:52:56.780Z,91.33
2023-01-17T09:53:56.791Z,91.39
2023-01-17T09:54:56.742Z,92.53
2023-01-17T09:55:56.743Z,91.80
2023-01-17T09:56:56.715Z,91.70
2023-01-17T09:57:56.707Z,91.64
2023-01-17T09:58:56.714Z,91.70
2023-01-17T10:00:03.241Z,91.49
2023-01-17T10:00:56.776Z,91.35
2023-01-17T10:01:56.834Z,91.76
2023-01-17T10:02:56.837Z,91.31
2023-01-17T10:03:56.764Z,91.10
2023-01-17T10:04:56.703Z,90.85
2023-01-17T10:05:56.617Z,89.92
2023-01-17T10:06:56.622Z,89.25
2023-01-17T10:07:56.620Z,88.46
2023-01-17T10:08:56.597Z,88.15
2023-01-17T10:09:56.573Z,87.95
2023-01-17T10:10:56.569Z,88.61
2023-01-17T10:11:56.574Z,88.98
2023-01-17T10:12:56.557Z,88.61
2023-01-17T10:13:56.537Z,88.40
2023-01-17T10:14:56.535Z,87.26
2023-01-17T10:15:56.506Z,88.30
2023-01-17T10:16:56.650Z,88.92
2023-01-17T10:17:56.521Z,88.65
2023-01-17T10:18:56.496Z,88.54
2023-01-17T10:19:56.485Z,88.65
2023-01-17T10:20:56.474Z,89.06
2023-01-17T10:21:56.447Z,89.62
2023-01-17T10:22:56.456Z,89.11
2023-01-17T10:23:56.414Z,89.37
2023-01-17T10:24:56.415Z,89.27
2023-01-17T10:25:56.414Z,88.75
2023-01-17T10:26:56.444Z,89.00
2023-01-17T10:27:56.388Z,89.06
2023-01-17T10:28:56.363Z,90.00
2023-01-17T10:29:56.369Z,89.58
2023-01-17T10:30:56.386Z,89.17
2023-01-17T10:31:56.324Z,90.00
2023-01-17T10:32:56.325Z,89.44
2023-01-17T10:33:56.330Z,89.61
2023-01-17T10:34:56.323Z,89.15
2023-01-17T10:35:56.301Z,89.21
2023-01-17T10:36:56.304Z,88.48
2023-01-17T10:37:56.260Z,87.10
2023-01-17T10:38:56.258Z,87.06
2023-01-17T10:39:56.236Z,86.02
2023-01-17T10:40:56.229Z,85.09
2023-01-17T10:41:56.241Z,85.30
2023-01-17T10:42:56.337Z,86.19
2023-01-17T10:43:56.229Z,85.16
2023-01-17T10:44:56.186Z,85.32
2023-01-17T10:45:56.222Z,85.16
2023-01-17T10:46:56.172Z,85.32
2023-01-17T10:47:56.147Z,84.81
2023-01-17T10:48:56.162Z,84.77
2023-01-17T10:49:56.125Z,84.25
2023-01-17T10:50:56.132Z,85.04
2023-01-17T10:51:56.147Z,82.08
2023-01-17T10:52:56.116Z,80.74
2023-01-17T10:53:56.088Z,80.43
2023-01-17T10:54:56.080Z,80.74
2023-01-17T10:55:56.081Z,80.60
2023-01-17T10:56:56.079Z,80.60
2023-01-17T10:57:56.037Z,82.42
2023-01-17T10:58:56.045Z,81.66
2023-01-17T10:59:56.064Z,79.32
2023-01-17T11:00:56.018Z,78.74
2023-01-17T11:01:56.033Z,79.77
2023-01-17T11:02:56.025Z,79.66
2023-01-17T11:03:55.972Z,79.11
2023-01-17T11:04:56.004Z,79.63
2023-01-17T11:05:55.981Z,80.76
2023-01-17T11:06:58.394Z,81.35
2023-01-17T11:07:55.940Z,81.04
2023-01-17T11:08:55.939Z,80.73
2023-01-17T11:09:55.923Z,81.18
2023-01-17T11:10:55.894Z,80.11
2023-01-17T11:11:55.877Z,80.63
2023-01-17T11:12:55.915Z,81.60
2023-01-17T11:13:55.864Z,81.02
2023-01-17T11:14:55.854Z,80.64
2023-01-17T11:15:55.936Z,81.05
2023-01-17T11:16:55.833Z,82.65
2023-01-17T11:17:55.848Z,82.65
2023-01-17T11:18:55.824Z,82.54
2023-01-17T11:19:55.806Z,81.30
2023-01-17T11:20:55.789Z,81.09
2023-01-17T11:21:55.773Z,81.75
2023-01-17T11:22:55.788Z,82.17
2023-01-17T11:23:55.756Z,81.23
2023-01-17T11:24:55.745Z,82.79
2023-01-17T11:25:55.743Z,81.85
2023-01-17T11:26:55.727Z,81.85
2023-01-17T11:27:55.777Z,80.40
2023-01-17T11:28:55.740Z,79.16
2023-01-17T11:29:55.740Z,80.40
2023-01-17T11:30:55.745Z,81.13
2023-01-17T11:31:55.725Z,81.20
2023-01-17T11:32:55.646Z,80.30
2023-01-17T11:33:55.752Z,80.68
2023-01-17T11:34:55.624Z,80.30
2023-01-17T11:35:55.623Z,79.95
2023-01-17T11:36:55.634Z,80.57
2023-01-17T11:37:55.597Z,80.68
2023-01-17T11:38:55.577Z,81.47
2023-01-17T11:39:55.576Z,79.91
2023-01-17T11:40:55.615Z,79.98
2023-01-17T11:41:55.581Z,79.05
2023-01-17T11:42:55.538Z,78.70
2023-01-17T11:43:55.556Z,76.43
2023-01-17T11:44:55.510Z,74.57
2023-01-17T11:45:55.534Z,74.29
2023-01-17T11:46:55.517Z,74.91
2023-01-17T11:47:55.505Z,73.91
2023-01-17T11:48:56.485Z,74.81
2023-01-17T11:49:55.466Z,75.02
2023-01-17T11:50:55.472Z,74.60
2023-01-17T11:51:55.434Z,74.91
2023-01-17T11:52:55.431Z,73.36
2023-01-17T11:53:55.436Z,73.50
2023-01-17T11:54:55.437Z,74.32
2023-01-17T11:55:55.400Z,74.29
2023-01-17T11:56:55.389Z,74.81
2023-01-17T11:57:56.507Z,73.88
2023-01-17T11:58:55.380Z,75.63
2023-01-17T11:59:55.363Z,75.53
2023-01-17T12:00:55.362Z,74.29
2023-01-17T12:01:55.358Z,74.50
2023-01-17T12:02:55.317Z,75.02
2023-01-17T12:03:55.733Z,75.84
2023-01-17T12:04:55.355Z,75.95
2023-01-17T12:05:55.284Z,76.05
2023-01-17T12:06:57.944Z,75.95
2023-01-17T12:07:55.290Z,74.91
2023-01-17T12:08:55.269Z,75.57
2023-01-17T12:09:55.241Z,74.74
2023-01-17T12:10:55.236Z,75.15
2023-01-17T12:11:55.243Z,74.74
2023-01-17T12:12:55.205Z,76.98
2023-01-17T12:13:55.200Z,75.53
2023-01-17T12:14:55.211Z,76.74
2023-01-17T12:15:55.224Z,76.74
2023-01-17T12:16:55.191Z,76.12
2023-01-17T12:17:55.188Z,76.01
2023-01-17T12:18:55.148Z,75.70
2023-01-17T12:19:55.186Z,75.91
2023-01-17T12:20:55.121Z,77.05
2023-01-17T12:21:55.113Z,75.09
2023-01-17T12:22:55.091Z,76.84
2023-01-17T12:23:55.128Z,75.70
2023-01-17T12:24:55.070Z,76.46
2023-01-17T12:25:55.058Z,74.60
2023-01-17T12:26:55.060Z,74.84
2023-01-17T12:27:55.071Z,74.57
2023-01-17T12:28:55.037Z,76.05
2023-01-17T12:29:55.016Z,76.98
2023-01-17T12:30:55.059Z,78.06
2023-01-17T12:31:55.007Z,79.10
2023-01-17T12:32:55.023Z,80.23
2023-01-17T12:33:54.995Z,79.92
2023-01-17T12:34:54.989Z,79.44
2023-01-17T12:35:54.970Z,79.13
2023-01-17T12:36:54.940Z,79.65
2023-01-17T12:38:04.728Z,79.85
2023-01-17T12:38:55.919Z,79.24
2023-01-17T12:39:54.946Z,79.85
2023-01-17T12:40:54.911Z,80.27
2023-01-17T12:41:54.882Z,80.89
2023-01-17T12:42:54.888Z,80.37
2023-01-17T12:43:54.861Z,80.13
2023-01-17T12:44:54.855Z,79.96
2023-01-17T12:45:54.865Z,80.37
2023-01-17T12:46:54.879Z,81.30
2023-01-17T12:47:54.822Z,82.14
2023-01-17T12:48:54.802Z,80.89
2023-01-17T12:49:54.818Z,80.16
2023-01-17T12:50:54.784Z,80.93
2023-01-17T12:51:54.817Z,81.45